Time;durP1;ratioP1;P1;durP2;ratioP2;P2;SDS_P1;SDS_P2;PMS_P1;PMS_P2;Temp;Humidity;BMP_temperature;BMP_pressure;BME280_temperature;BME280_humidity;BME280_pressure;Samples;Min_cycle;Max_cycle;Signal;HPM_P1;HPM_P2
2022/09/19 00:02:23;;;;;;;;;;;8.00;99.90;;;;;;4874642;29;19956;-78
2022/09/19 00:04:49;;;;;;;;;;;7.90;99.90;;;;;;4890097;29;19915;-78
2022/09/19 00:07:14;;;;;;;;;;;7.90;99.90;;;;;;4889549;29;20210;-77
2022/09/19 00:09:40;;;;;;;;;;;8.00;99.90;;;;;;4891061;29;19912;-77
2022/09/19 00:12:05;;;;;;;;;;;8.00;99.90;;;;;;4889136;29;19912;-77
2022/09/19 00:14:33;;;;;;;;;;;7.90;99.90;;;;;;4889769;29;19943;-77
2022/09/19 00:17:01;;;;;;;;;;;7.90;99.90;;;;;;4889611;29;19919;-78
2022/09/19 00:19:27;;;;;;;;;;;7.90;99.90;;;;;;4889788;29;19923;-78
2022/09/19 00:21:55;;;;;;;;;;;7.90;99.90;;;;;;4889532;29;19911;-78
2022/09/19 00:27:06;;;;;;;;;;;8.00;99.90;;;;;;4889728;29;19934;-78
2022/09/19 00:29:33;;;;;;;;;;;8.00;99.90;;;;;;4889649;29;19948;-78
2022/09/19 00:31:58;;;;;;;;;;;8.00;99.90;;;;;;4889396;29;20152;-78
2022/09/19 00:34:25;;;;;;;;;;;8.00;99.90;;;;;;4873973;29;19912;-78
2022/09/19 00:36:51;;;;;;;;;;;8.00;99.90;;;;;;4889141;29;19934;-78
2022/09/19 00:39:17;;;;;;;;;;;8.00;99.90;;;;;;4873932;29;19982;-78
2022/09/19 00:41:43;;;;;;;;;;;7.90;99.90;;;;;;4873790;29;19987;-78
2022/09/19 00:44:21;;;;;;;;;;;7.90;99.90;;;;;;4890438;29;19912;-78
2022/09/19 00:46:47;;;;;;;;;;;7.90;99.90;;;;;;4890181;29;19951;-77
2022/09/19 00:49:19;;;;;;;;;;;7.90;99.90;;;;;;4889441;29;19948;-78
2022/09/19 00:51:54;;;;;;;;;;;7.90;99.90;;;;;;4889191;29;19916;-78
2022/09/19 00:54:34;;;;;;;;;;;7.90;99.90;;;;;;4889260;29;19916;-78
2022/09/19 00:57:00;;;;;;;;;;;7.90;99.90;;;;;;4889227;29;19911;-78
2022/09/19 00:59:27;;;;;;;;;;;7.90;99.90;;;;;;4889174;29;19982;-77
2022/09/19 01:01:53;;;;;;;;;;;7.90;99.90;;;;;;4889022;29;20206;-78
2022/09/19 01:04:21;;;;;;;;;;;7.80;99.90;;;;;;4873564;29;19912;-78
2022/09/19 01:06:56;;;;;;;;;;;7.80;99.90;;;;;;4873030;29;20218;-78
2022/09/19 01:09:44;;;;;;;;;;;7.90;99.90;;;;;;4888790;29;20142;-78
2022/09/19 01:12:26;;;;;;;;;;;7.80;99.90;;;;;;4887944;29;19919;-78
2022/09/19 01:15:12;;;;;;;;;;;7.80;99.90;;;;;;4889030;29;19912;-78
2022/09/19 01:17:46;;;;;;;;;;;7.80;99.90;;;;;;4889647;29;19916;-78
2022/09/19 01:20:44;;;;;;;;;;;7.80;99.90;;;;;;4873638;29;19947;-78
2022/09/19 01:23:28;;;;;;;;;;;7.80;99.90;;;;;;4873247;29;19918;-78
2022/09/19 01:26:11;;;;;;;;;;;7.80;99.90;;;;;;4888691;29;19919;-77
2022/09/19 01:28:43;;;;;;;;;;;7.80;99.90;;;;;;4873190;29;19912;-77
2022/09/19 01:31:17;;;;;;;;;;;7.80;99.90;;;;;;4888485;29;20029;-78
2022/09/19 01:34:06;;;;;;;;;;;7.80;99.90;;;;;;4873272;29;20198;-78
2022/09/19 01:36:34;;;;;;;;;;;7.90;99.90;;;;;;4888333;29;19918;-78
2022/09/19 01:39:02;;;;;;;;;;;8.00;99.90;;;;;;4887456;29;19922;-78
2022/09/19 01:41:28;;;;;;;;;;;7.90;99.90;;;;;;4888451;29;19912;-78
2022/09/19 01:43:54;;;;;;;;;;;8.00;99.90;;;;;;4888465;29;19912;-77
2022/09/19 01:46:27;;;;;;;;;;;8.00;99.90;;;;;;4889350;29;20152;-77
2022/09/19 01:48:55;;;;;;;;;;;8.00;99.90;;;;;;4888497;29;19920;-77
2022/09/19 01:51:51;;;;;;;;;;;8.00;99.90;;;;;;4888467;29;19974;-77
2022/09/19 01:54:32;;;;;;;;;;;8.00;99.90;;;;;;4890286;29;19943;-78
2022/09/19 01:57:07;;;;;;;;;;;8.00;99.90;;;;;;4890869;29;19912;-78
2022/09/19 02:00:00;;;;;;;;;;;8.10;99.90;;;;;;4894989;29;19990;-78
2022/09/19 02:03:07;;;;;;;;;;;8.10;99.90;;;;;;4892241;29;20224;-78
2022/09/19 02:05:35;;;;;;;;;;;8.10;99.90;;;;;;4891028;29;19919;-78
2022/09/19 02:08:15;;;;;;;;;;;8.20;99.90;;;;;;4892320;29;19945;-78
2022/09/19 02:10:44;;;;;;;;;;;8.10;99.90;;;;;;4890123;29;19991;-78
2022/09/19 02:13:10;;;;;;;;;;;8.10;99.90;;;;;;4887815;29;19936;-78
2022/09/19 02:15:36;;;;;;;;;;;8.10;99.90;;;;;;4888802;29;19912;-78
2022/09/19 02:18:24;;;;;;;;;;;8.10;99.90;;;;;;4872730;29;19919;-77
2022/09/19 02:20:55;;;;;;;;;;;8.10;99.90;;;;;;4892467;29;19916;-77
2022/09/19 02:23:24;;;;;;;;;;;8.10;99.90;;;;;;4892343;29;19919;-78
2022/09/19 02:25:51;;;;;;;;;;;8.10;99.90;;;;;;4892319;29;19915;-77
2022/09/19 02:28:23;;;;;;;;;;;8.20;99.90;;;;;;4891578;29;19912;-77
2022/09/19 02:30:48;;;;;;;;;;;8.20;99.90;;;;;;4892321;29;19912;-77
2022/09/19 02:33:15;;;;;;;;;;;8.20;99.90;;;;;;4926114;23;20241;-76
2022/09/19 02:35:52;;;;;;;;;;;8.10;99.90;;;;;;4906748;29;19918;-76
2022/09/19 02:38:23;;;;;;;;;;;8.10;99.90;;;;;;4927584;29;19915;-76
2022/09/19 02:40:52;;;;;;;;;;;8.10;99.90;;;;;;4910582;29;19919;-76
2022/09/19 02:43:26;;;;;;;;;;;8.20;99.90;;;;;;4900660;29;20147;-76
2022/09/19 02:45:55;;;;;;;;;;;8.20;99.90;;;;;;4891706;29;19912;-76
2022/09/19 02:48:30;;;;;;;;;;;8.20;99.90;;;;;;4891268;29;19911;-76
2022/09/19 02:51:12;;;;;;;;;;;8.30;99.90;;;;;;4875914;29;20228;-76
2022/09/19 02:53:43;;;;;;;;;;;8.30;99.90;;;;;;4891455;29;19918;-76
2022/09/19 02:56:11;;;;;;;;;;;8.30;99.90;;;;;;4890950;29;19912;-76
2022/09/19 02:58:41;;;;;;;;;;;8.30;99.90;;;;;;4876295;29;20242;-76
2022/09/19 03:01:10;;;;;;;;;;;8.30;99.90;;;;;;4876123;29;20213;-76
2022/09/19 03:06:26;;;;;;;;;;;8.30;99.90;;;;;;4891308;29;19942;-76
2022/09/19 03:08:52;;;;;;;;;;;8.30;99.90;;;;;;4891354;29;20147;-76
2022/09/19 03:11:19;;;;;;;;;;;8.40;99.90;;;;;;4875415;29;19912;-76
2022/09/19 03:13:45;;;;;;;;;;;8.40;99.90;;;;;;4874923;29;19912;-76
2022/09/19 03:16:14;;;;;;;;;;;8.40;99.90;;;;;;4891731;29;19912;-76
2022/09/19 03:18:40;;;;;;;;;;;8.40;99.90;;;;;;4890652;29;19950;-76
2022/09/19 03:21:09;;;;;;;;;;;8.40;99.90;;;;;;4890840;29;19911;-76
2022/09/19 03:23:45;;;;;;;;;;;8.50;99.90;;;;;;4890734;29;19912;-76
2022/09/19 03:26:13;;;;;;;;;;;8.50;99.90;;;;;;4890549;29;19912;-76
2022/09/19 03:28:38;;;;;;;;;;;8.50;99.90;;;;;;4890802;29;19987;-76
2022/09/19 03:31:05;;;;;;;;;;;8.50;99.90;;;;;;4890044;29;19911;-76
2022/09/19 03:33:31;;;;;;;;;;;8.50;99.90;;;;;;4890323;29;19947;-76
2022/09/19 03:35:59;;;;;;;;;;;8.50;99.90;;;;;;4891515;29;19956;-76
2022/09/19 03:38:24;;;;;;;;;;;8.50;99.90;;;;;;4890383;29;19922;-76
2022/09/19 03:40:50;;;;;;;;;;;8.50;99.90;;;;;;4889919;29;19924;-76
2022/09/19 03:43:17;;;;;;;;;;;8.50;99.90;;;;;;4890363;29;19912;-76
2022/09/19 03:45:43;;;;;;;;;;;8.50;99.90;;;;;;4874911;29;19912;-76
2022/09/19 03:48:08;;;;;;;;;;;8.60;99.90;;;;;;4889868;29;19912;-76
2022/09/19 03:50:34;;;;;;;;;;;8.50;99.90;;;;;;4891395;29;19918;-76
2022/09/19 03:53:00;;;;;;;;;;;8.60;99.90;;;;;;4890068;29;19912;-76
2022/09/19 03:55:26;;;;;;;;;;;8.60;99.90;;;;;;4891162;29;19918;-76
2022/09/19 03:57:51;;;;;;;;;;;8.60;99.90;;;;;;4889771;29;19912;-76
2022/09/19 04:00:17;;;;;;;;;;;8.60;99.90;;;;;;4890022;29;19912;-76
2022/09/19 04:02:43;;;;;;;;;;;8.70;99.90;;;;;;4889818;29;19961;-76
2022/09/19 04:05:08;;;;;;;;;;;8.70;99.90;;;;;;4891111;29;19991;-76
2022/09/19 04:07:37;;;;;;;;;;;8.70;99.90;;;;;;4889628;29;19912;-76
2022/09/19 04:10:05;;;;;;;;;;;8.70;99.90;;;;;;4890947;29;19987;-76
2022/09/19 04:12:33;;;;;;;;;;;8.70;99.90;;;;;;4874006;29;19992;-76
2022/09/19 04:14:59;;;;;;;;;;;8.80;99.90;;;;;;4889907;29;19911;-76
2022/09/19 04:17:27;;;;;;;;;;;8.70;99.90;;;;;;4873880;29;19929;-76
2022/09/19 04:19:53;;;;;;;;;;;8.80;99.90;;;;;;4890915;29;19923;-76
2022/09/19 04:22:21;;;;;;;;;;;8.80;99.90;;;;;;4889701;29;19939;-76
2022/09/19 04:24:48;;;;;;;;;;;8.80;99.90;;;;;;4889535;29;20114;-76
2022/09/19 04:27:13;;;;;;;;;;;8.80;99.90;;;;;;4889330;29;19943;-76
2022/09/19 04:29:40;;;;;;;;;;;8.80;99.90;;;;;;4889434;29;20226;-76
2022/09/19 04:32:06;;;;;;;;;;;8.80;99.90;;;;;;4889358;29;19911;-76
2022/09/19 04:34:33;;;;;;;;;;;8.80;99.90;;;;;;4889146;29;19950;-76
2022/09/19 04:37:02;;;;;;;;;;;8.80;99.90;;;;;;4890252;29;20257;-76
2022/09/19 04:39:28;;;;;;;;;;;8.90;99.90;;;;;;4889153;29;19932;-76
2022/09/19 04:41:54;;;;;;;;;;;8.80;99.90;;;;;;4872885;29;19912;-76
2022/09/19 04:44:25;;;;;;;;;;;8.90;99.90;;;;;;4889504;29;20143;-76
2022/09/19 04:46:51;;;;;;;;;;;8.90;99.90;;;;;;4874240;29;20235;-76
2022/09/19 04:49:17;;;;;;;;;;;8.90;99.90;;;;;;4890190;29;19912;-76
2022/09/19 04:51:43;;;;;;;;;;;8.90;99.90;;;;;;4889117;29;19912;-69
2022/09/19 04:54:10;;;;;;;;;;;8.90;99.90;;;;;;4888519;29;19916;-69
2022/09/19 04:56:35;;;;;;;;;;;8.90;99.90;;;;;;4889867;29;19967;-75
2022/09/19 04:59:02;;;;;;;;;;;9.00;99.90;;;;;;4889812;29;19987;-76
2022/09/19 05:01:30;;;;;;;;;;;9.00;99.90;;;;;;4888900;29;20218;-76
2022/09/19 05:03:57;;;;;;;;;;;9.10;99.90;;;;;;4888882;29;19918;-76
2022/09/19 05:06:23;;;;;;;;;;;9.10;99.90;;;;;;4888581;29;20265;-76
2022/09/19 05:08:50;;;;;;;;;;;9.10;99.90;;;;;;4888851;29;19912;-76
2022/09/19 05:11:18;;;;;;;;;;;9.10;99.90;;;;;;4888881;29;19982;-76
2022/09/19 05:13:44;;;;;;;;;;;9.10;99.90;;;;;;4887860;29;19912;-76
2022/09/19 05:16:10;;;;;;;;;;;9.10;99.90;;;;;;4888503;29;20244;-75
2022/09/19 05:18:37;;;;;;;;;;;9.00;99.90;;;;;;4888588;29;19916;-75
2022/09/19 05:21:07;;;;;;;;;;;9.00;99.90;;;;;;4888671;29;19918;-76
2022/09/19 05:23:35;;;;;;;;;;;9.00;99.90;;;;;;4888808;29;19919;-76
2022/09/19 05:26:05;;;;;;;;;;;9.00;99.90;;;;;;4873370;29;19954;-76
2022/09/19 05:28:31;;;;;;;;;;;9.00;99.90;;;;;;4888446;29;19912;-75
2022/09/19 05:30:56;;;;;;;;;;;9.00;99.90;;;;;;4888533;29;19919;-76
2022/09/19 05:33:26;;;;;;;;;;;9.10;99.90;;;;;;4888307;29;19916;-76
2022/09/19 05:36:00;;;;;;;;;;;9.00;99.90;;;;;;4873319;29;20106;-76
2022/09/19 05:38:29;;;;;;;;;;;9.10;99.90;;;;;;4872190;29;19935;-76
2022/09/19 05:40:56;;;;;;;;;;;9.10;99.90;;;;;;4888197;29;19912;-76
2022/09/19 05:43:22;;;;;;;;;;;9.10;99.90;;;;;;4887339;29;19911;-76
2022/09/19 05:45:50;;;;;;;;;;;9.10;99.90;;;;;;4888221;29;20229;-76
2022/09/19 05:48:15;;;;;;;;;;;9.20;99.90;;;;;;4888016;29;19916;-76
2022/09/19 05:50:44;;;;;;;;;;;9.20;99.90;;;;;;4889287;29;20252;-76
2022/09/19 05:55:55;;;;;;;;;;;9.20;99.90;;;;;;4884166;29;19926;-76
2022/09/19 05:58:21;;;;;;;;;;;9.30;99.90;;;;;;4875329;29;19924;-77
2022/09/19 06:00:46;;;;;;;;;;;9.30;99.90;;;;;;4879419;29;19923;-77
2022/09/19 06:03:16;;;;;;;;;;;9.30;99.90;;;;;;4882929;29;19912;-73
2022/09/19 06:05:48;;;;;;;;;;;9.30;99.90;;;;;;4878730;29;20091;-72
2022/09/19 06:08:21;;;;;;;;;;;9.30;99.90;;;;;;4879761;29;20053;-73
2022/09/19 06:10:47;;;;;;;;;;;9.30;99.90;;;;;;4882652;29;20113;-77
2022/09/19 06:13:14;;;;;;;;;;;9.40;99.90;;;;;;4869364;29;20010;-74
2022/09/19 06:15:39;;;;;;;;;;;9.40;99.90;;;;;;4882280;29;19912;-77
2022/09/19 06:18:05;;;;;;;;;;;9.50;99.90;;;;;;4874731;29;19987;-74
2022/09/19 06:20:31;;;;;;;;;;;9.50;99.90;;;;;;4873914;29;19935;-75
2022/09/19 06:23:00;;;;;;;;;;;9.60;99.90;;;;;;4866934;29;19912;-75
2022/09/19 06:25:28;;;;;;;;;;;9.60;99.90;;;;;;4886650;29;19919;-74
2022/09/19 06:27:59;;;;;;;;;;;9.60;99.90;;;;;;4868705;29;19934;-75
2022/09/19 06:30:24;;;;;;;;;;;9.60;99.90;;;;;;4873231;29;19916;-74
2022/09/19 06:32:51;;;;;;;;;;;9.70;99.90;;;;;;4869899;29;19980;-79
2022/09/19 06:35:17;;;;;;;;;;;9.60;99.90;;;;;;4874039;29;19912;-75
2022/09/19 06:37:43;;;;;;;;;;;9.70;99.90;;;;;;4887423;29;19975;-73
2022/09/19 06:40:09;;;;;;;;;;;9.70;99.90;;;;;;4889031;29;19911;-76
2022/09/19 06:42:35;;;;;;;;;;;9.70;99.90;;;;;;4888684;29;19947;-77
2022/09/19 06:45:00;;;;;;;;;;;9.80;99.90;;;;;;4871505;29;19915;-76
2022/09/19 06:47:26;;;;;;;;;;;9.90;99.90;;;;;;4887264;29;20109;-76
2022/09/19 06:49:52;;;;;;;;;;;9.90;99.90;;;;;;4887772;29;20126;-75
2022/09/19 06:52:18;;;;;;;;;;;10.00;99.90;;;;;;4888833;29;19952;-77
2022/09/19 06:54:44;;;;;;;;;;;10.00;99.90;;;;;;4886766;29;19912;-76
2022/09/19 06:57:11;;;;;;;;;;;10.10;99.90;;;;;;4888422;29;19919;-76
2022/09/19 06:59:38;;;;;;;;;;;10.10;99.90;;;;;;4887931;29;19916;-71
2022/09/19 07:02:04;;;;;;;;;;;10.20;99.90;;;;;;4887526;29;19912;-71
2022/09/19 07:04:30;;;;;;;;;;;10.20;99.90;;;;;;4887542;29;19960;-71
2022/09/19 07:06:56;;;;;;;;;;;10.20;99.90;;;;;;4889933;29;19919;-75
2022/09/19 07:09:23;;;;;;;;;;;10.30;99.90;;;;;;4860613;29;19912;-75
2022/09/19 07:11:51;;;;;;;;;;;10.30;99.90;;;;;;4891823;29;19911;-75
2022/09/19 07:14:16;;;;;;;;;;;10.30;99.90;;;;;;4874826;29;19912;-75
2022/09/19 07:16:42;;;;;;;;;;;10.30;99.90;;;;;;4891874;29;19960;-77
2022/09/19 07:19:10;;;;;;;;;;;10.30;99.90;;;;;;4891502;29;20422;-75
2022/09/19 07:21:35;;;;;;;;;;;10.40;99.90;;;;;;4891486;29;19967;-75
2022/09/19 07:24:03;;;;;;;;;;;10.40;99.90;;;;;;4890635;29;19912;-75
2022/09/19 07:26:28;;;;;;;;;;;10.40;99.90;;;;;;4891483;29;19912;-75
2022/09/19 07:28:54;;;;;;;;;;;10.50;99.90;;;;;;4891632;29;19951;-76
2022/09/19 07:31:20;;;;;;;;;;;10.50;99.90;;;;;;4891378;29;19950;-76
2022/09/19 07:33:47;;;;;;;;;;;10.50;99.90;;;;;;4891336;29;19924;-75
2022/09/19 07:36:12;;;;;;;;;;;10.60;99.90;;;;;;4890966;29;19911;-76
2022/09/19 07:38:38;;;;;;;;;;;10.60;99.90;;;;;;4891203;29;19922;-74
2022/09/19 07:41:04;;;;;;;;;;;10.60;99.90;;;;;;4891139;29;19911;-73
2022/09/19 07:43:30;;;;;;;;;;;10.70;99.90;;;;;;4891512;29;19983;-75
2022/09/19 07:45:55;;;;;;;;;;;10.70;99.90;;;;;;4890425;29;20020;-74
2022/09/19 07:48:21;;;;;;;;;;;10.70;99.90;;;;;;4891033;29;19919;-75
2022/09/19 07:50:49;;;;;;;;;;;10.60;99.90;;;;;;4891220;29;19915;-75
2022/09/19 07:53:17;;;;;;;;;;;10.60;99.90;;;;;;4890292;29;19919;-79
2022/09/19 07:55:43;;;;;;;;;;;10.60;99.90;;;;;;4892424;29;19916;-77
2022/09/19 07:58:10;;;;;;;;;;;10.60;99.90;;;;;;4890198;29;19916;-78
2022/09/19 08:00:39;;;;;;;;;;;10.70;99.90;;;;;;4890685;29;19968;-78
2022/09/19 08:03:08;;;;;;;;;;;10.80;99.90;;;;;;4891740;29;19983;-78
2022/09/19 08:05:35;;;;;;;;;;;10.80;99.90;;;;;;4892325;29;19919;-79
2022/09/19 08:08:01;;;;;;;;;;;10.80;99.90;;;;;;4892051;29;19919;-79
2022/09/19 08:10:26;;;;;;;;;;;10.80;99.90;;;;;;4892440;29;19912;-72
2022/09/19 08:12:52;;;;;;;;;;;10.90;99.90;;;;;;4890415;29;20159;-74
2022/09/19 08:15:18;;;;;;;;;;;10.90;99.90;;;;;;4890846;29;19986;-78
2022/09/19 08:17:56;;;;;;;;;;;10.90;99.90;;;;;;4893425;29;19911;-78
2022/09/19 08:20:22;;;;;;;;;;;10.90;99.90;;;;;;4892270;29;19912;-75
2022/09/19 08:22:47;;;;;;;;;;;10.80;99.90;;;;;;4890540;29;19935;-75
2022/09/19 08:25:14;;;;;;;;;;;10.90;99.90;;;;;;4873060;29;20009;-71
2022/09/19 08:27:43;;;;;;;;;;;10.90;99.90;;;;;;4890077;29;20027;-71
2022/09/19 08:30:09;;;;;;;;;;;11.00;99.90;;;;;;4889053;29;19917;-71
2022/09/19 08:32:35;;;;;;;;;;;11.00;99.90;;;;;;4890049;29;19967;-70
2022/09/19 08:35:00;;;;;;;;;;;11.10;99.90;;;;;;4889762;29;20218;-71
2022/09/19 08:37:26;;;;;;;;;;;11.10;99.90;;;;;;4889899;29;19912;-77
2022/09/19 08:42:58;;;;;;;;;;;11.20;99.90;;;;;;4922528;29;19922;-73
2022/09/19 08:46:01;;;;;;;;;;;11.20;99.90;;;;;;4929737;29;19927;-73
2022/09/19 08:48:29;;;;;;;;;;;11.30;99.90;;;;;;4890118;29;19919;-73
2022/09/19 08:50:57;;;;;;;;;;;11.40;99.90;;;;;;4873797;29;19912;-73
2022/09/19 08:53:27;;;;;;;;;;;11.50;99.90;;;;;;4889310;29;20159;-73
2022/09/19 08:55:53;;;;;;;;;;;11.60;99.90;;;;;;4888745;29;19911;-73
2022/09/19 08:58:20;;;;;;;;;;;11.70;99.90;;;;;;4888295;29;19911;-73
2022/09/19 09:00:45;;;;;;;;;;;11.80;99.90;;;;;;4889037;29;20112;-75
2022/09/19 09:03:16;;;;;;;;;;;11.90;99.90;;;;;;4889010;29;19911;-75
2022/09/19 09:05:42;;;;;;;;;;;12.00;99.90;;;;;;4890372;29;19912;-75
2022/09/19 09:08:23;;;;;;;;;;;12.10;99.90;;;;;;4893417;29;19912;-75
2022/09/19 09:11:13;;;;;;;;;;;12.20;99.90;;;;;;4891180;29;20176;-75
2022/09/19 09:13:56;;;;;;;;;;;12.30;99.90;;;;;;4892890;29;19974;-75
2022/09/19 09:16:35;;;;;;;;;;;12.30;99.90;;;;;;4891299;29;19942;-75
2022/09/19 09:19:36;;;;;;;;;;;12.40;99.90;;;;;;4892225;29;19911;-75
2022/09/19 09:22:09;;;;;;;;;;;12.40;99.90;;;;;;4894651;29;19916;-75
2022/09/19 09:24:38;;;;;;;;;;;12.50;99.90;;;;;;4886630;29;20106;-75
2022/09/19 09:27:05;;;;;;;;;;;12.50;99.90;;;;;;4886410;29;19912;-75
2022/09/19 09:29:34;;;;;;;;;;;12.60;99.90;;;;;;4870442;29;19912;-75
2022/09/19 09:32:14;;;;;;;;;;;12.70;99.90;;;;;;4885427;29;19947;-75
2022/09/19 09:34:43;;;;;;;;;;;12.80;99.90;;;;;;4885304;29;19916;-75
2022/09/19 09:37:25;;;;;;;;;;;12.90;99.90;;;;;;4885031;29;19912;-76
2022/09/19 09:39:59;;;;;;;;;;;12.90;99.90;;;;;;4899526;29;19956;-76
2022/09/19 09:42:38;;;;;;;;;;;12.90;99.90;;;;;;4881489;29;19916;-75
2022/09/19 09:45:16;;;;;;;;;;;13.00;99.90;;;;;;4888387;29;19919;-75
2022/09/19 09:47:48;;;;;;;;;;;12.80;99.90;;;;;;4903072;29;20170;-73
2022/09/19 09:50:26;;;;;;;;;;;12.80;99.90;;;;;;4888096;29;20162;-73
2022/09/19 09:53:11;;;;;;;;;;;12.60;99.90;;;;;;4888991;29;19911;-75
2022/09/19 09:56:15;;;;;;;;;;;12.60;99.90;;;;;;4886931;29;19919;-74
2022/09/19 09:58:41;;;;;;;;;;;12.60;99.90;;;;;;4888453;29;19923;-77
2022/09/19 10:04:20;;;;;;;;;;;12.50;99.90;;;;;;4891051;29;19919;-81
2022/09/19 10:07:20;;;;;;;;;;;12.60;99.90;;;;;;4875104;29;19911;-80
2022/09/19 10:09:49;;;;;;;;;;;12.70;99.90;;;;;;4839996;29;19912;-80
2022/09/19 10:12:21;;;;;;;;;;;12.80;99.90;;;;;;4895327;29;19912;-80
2022/09/19 10:14:47;;;;;;;;;;;12.90;99.90;;;;;;4899589;29;19940;-81
2022/09/19 10:17:13;;;;;;;;;;;13.10;99.90;;;;;;4882853;29;19974;-81
2022/09/19 10:19:54;;;;;;;;;;;13.30;99.90;;;;;;4899869;29;19912;-81
2022/09/19 10:22:20;;;;;;;;;;;13.30;99.90;;;;;;4900223;29;19916;-81
2022/09/19 10:24:58;;;;;;;;;;;13.30;99.90;;;;;;4882910;29;19919;-81
2022/09/19 10:27:49;;;;;;;;;;;13.30;99.90;;;;;;4892415;29;20013;-80
2022/09/19 10:30:18;;;;;;;;;;;13.50;99.90;;;;;;4894948;29;19912;-81
2022/09/19 10:32:44;;;;;;;;;;;13.60;99.90;;;;;;4876621;29;19912;-83
2022/09/19 10:35:26;;;;;;;;;;;13.80;99.90;;;;;;4891955;29;19911;-82
2022/09/19 10:38:15;;;;;;;;;;;13.90;99.90;;;;;;4907377;29;19954;-85
2022/09/19 10:40:57;;;;;;;;;;;13.90;99.90;;;;;;4887879;29;19920;-83
2022/09/19 10:43:26;;;;;;;;;;;13.90;99.90;;;;;;4878020;29;19919;-83
2022/09/19 10:45:52;;;;;;;;;;;14.00;99.90;;;;;;4878101;29;19912;-84
2022/09/19 10:48:22;;;;;;;;;;;14.10;99.90;;;;;;4861732;29;19912;-83
2022/09/19 10:50:48;;;;;;;;;;;14.20;99.90;;;;;;4878905;29;19915;-83
2022/09/19 10:53:41;;;;;;;;;;;14.30;99.90;;;;;;4894273;29;19950;-81
2022/09/19 10:56:29;;;;;;;;;;;14.20;99.90;;;;;;4895271;29;19919;-82
2022/09/19 10:59:05;;;;;;;;;;;14.10;99.90;;;;;;4895470;29;20306;-82
2022/09/19 11:01:31;;;;;;;;;;;14.00;99.90;;;;;;4895725;29;19915;-82
2022/09/19 11:04:00;;;;;;;;;;;14.00;99.90;;;;;;4894622;29;19966;-82
2022/09/19 11:06:26;;;;;;;;;;;13.90;99.90;;;;;;4893171;29;19912;-82
2022/09/19 11:08:53;;;;;;;;;;;13.90;99.90;;;;;;4890345;29;20115;-82
2022/09/19 11:11:46;;;;;;;;;;;13.80;99.90;;;;;;4879584;29;19916;-82
2022/09/19 11:14:32;;;;;;;;;;;13.80;99.90;;;;;;4879213;29;19912;-81
2022/09/19 11:17:17;;;;;;;;;;;13.80;99.90;;;;;;4893608;29;19919;-80
2022/09/19 11:20:16;;;;;;;;;;;13.80;99.90;;;;;;4888452;29;19912;-81
2022/09/19 11:23:10;;;;;;;;;;;13.70;99.90;;;;;;4876270;29;20010;-81
2022/09/19 11:25:58;;;;;;;;;;;13.60;99.90;;;;;;4874728;29;19937;-81
2022/09/19 11:28:29;;;;;;;;;;;13.60;99.90;;;;;;4874830;29;19918;-81
2022/09/19 11:31:05;;;;;;;;;;;13.60;99.90;;;;;;4875447;29;19919;-81
2022/09/19 11:33:43;;;;;;;;;;;13.70;99.90;;;;;;4874508;29;19918;-81
2022/09/19 11:36:19;;;;;;;;;;;13.70;99.90;;;;;;4874218;29;19919;-80
2022/09/19 11:39:03;;;;;;;;;;;13.70;99.90;;;;;;4875955;29;20205;-82
2022/09/19 11:41:48;;;;;;;;;;;13.60;99.90;;;;;;4893090;29;19926;-81
2022/09/19 11:44:46;;;;;;;;;;;13.60;99.90;;;;;;4894222;29;20118;-81
2022/09/19 11:47:20;;;;;;;;;;;13.60;99.90;;;;;;4905881;29;19955;-81
2022/09/19 11:50:08;;;;;;;;;;;13.80;99.90;;;;;;4893448;29;19912;-82
2022/09/19 11:52:52;;;;;;;;;;;14.00;99.90;;;;;;4906925;29;19927;-82
2022/09/19 11:55:49;;;;;;;;;;;14.50;99.90;;;;;;4893640;29;19915;-82
2022/09/19 11:58:18;;;;;;;;;;;14.80;99.90;;;;;;4892747;29;19979;-82
2022/09/19 12:00:52;;;;;;;;;;;14.80;99.90;;;;;;4908712;29;19916;-82
2022/09/19 12:03:39;;;;;;;;;;;14.90;99.90;;;;;;4877907;29;19916;-81
2022/09/19 12:06:16;;;;;;;;;;;14.80;99.90;;;;;;4892292;29;19912;-82
2022/09/19 12:09:11;;;;;;;;;;;14.90;99.90;;;;;;4878770;29;19979;-78
2022/09/19 12:12:00;;;;;;;;;;;15.30;99.90;;;;;;4894481;29;19911;-82
2022/09/19 12:14:28;;;;;;;;;;;15.90;99.90;;;;;;4893714;29;19920;-82
2022/09/19 12:16:57;;;;;;;;;;;16.50;99.90;;;;;;4892794;29;19912;-82
2022/09/19 12:19:35;;;;;;;;;;;17.00;99.90;;;;;;4892714;29;20230;-82
2022/09/19 12:22:25;;;;;;;;;;;17.60;99.90;;;;;;4893069;29;19916;-81
2022/09/19 12:25:01;;;;;;;;;;;18.50;99.90;;;;;;4888404;29;19960;-74
2022/09/19 12:27:32;;;;;;;;;;;19.40;99.90;;;;;;4877629;29;19912;-77
2022/09/19 12:30:15;;;;;;;;;;;19.70;99.90;;;;;;4890685;29;19911;-77
2022/09/19 12:33:05;;;;;;;;;;;19.70;99.90;;;;;;4875015;29;19912;-77
2022/09/19 12:35:41;;;;;;;;;;;19.80;99.90;;;;;;4889563;29;19938;-77
2022/09/19 12:38:29;;;;;;;;;;;19.70;99.90;;;;;;4889280;29;19918;-77
2022/09/19 12:40:56;;;;;;;;;;;19.60;99.90;;;;;;4889375;29;19919;-77
2022/09/19 12:43:41;;;;;;;;;;;19.80;99.90;;;;;;4890354;29;19915;-76
2022/09/19 12:46:15;;;;;;;;;;;19.50;99.90;;;;;;4889350;29;20118;-77
2022/09/19 12:49:03;;;;;;;;;;;19.30;99.90;;;;;;4890228;29;19912;-77
2022/09/19 12:52:06;;;;;;;;;;;19.20;99.90;;;;;;4889309;29;19912;-76
2022/09/19 12:54:44;;;;;;;;;;;19.10;99.90;;;;;;4889207;29;20015;-77
2022/09/19 12:57:18;;;;;;;;;;;19.10;99.90;;;;;;4883379;29;19912;-77
2022/09/19 12:59:47;;;;;;;;;;;19.00;99.90;;;;;;4870319;29;19920;-76
2022/09/19 13:02:22;;;;;;;;;;;19.30;99.90;;;;;;4855092;29;19916;-76
2022/09/19 13:04:52;;;;;;;;;;;19.60;99.90;;;;;;4870753;29;19960;-76
2022/09/19 13:07:35;;;;;;;;;;;19.10;99.90;;;;;;4871020;29;19920;-76
2022/09/19 13:10:15;;;;;;;;;;;18.90;99.90;;;;;;4870086;29;19919;-76
2022/09/19 13:12:52;;;;;;;;;;;19.30;99.90;;;;;;4870482;29;19931;-76
2022/09/19 13:15:24;;;;;;;;;;;19.70;99.90;;;;;;4887232;29;20203;-76
2022/09/19 13:23:32;;;;;;;;;;;18.50;99.90;;;;;;4888744;29;19994;-77
2022/09/19 13:26:19;;;;;;;;;;;17.80;99.90;;;;;;4883188;29;20232;-76
2022/09/19 13:28:52;;;;;;;;;;;17.40;99.90;;;;;;4870304;29;20151;-77
2022/09/19 13:31:19;;;;;;;;;;;16.90;99.90;;;;;;4881265;29;19944;-77
2022/09/19 13:33:47;;;;;;;;;;;16.50;99.90;;;;;;4888461;29;20091;-77
2022/09/19 13:36:34;;;;;;;;;;;16.20;99.90;;;;;;4887385;29;19984;-77
2022/09/19 13:38:59;;;;;;;;;;;16.00;99.90;;;;;;4870774;29;19916;-77
2022/09/19 13:41:51;;;;;;;;;;;15.70;99.90;;;;;;4854225;29;19920;-77
2022/09/19 13:44:36;;;;;;;;;;;15.50;99.90;;;;;;4857726;29;20230;-79
2022/09/19 13:47:09;;;;;;;;;;;15.40;99.90;;;;;;4863397;29;19912;-77
2022/09/19 13:49:45;;;;;;;;;;;15.50;99.90;;;;;;4888335;29;19975;-77
2022/09/19 13:52:31;;;;;;;;;;;16.10;99.90;;;;;;4887227;29;19918;-76
2022/09/19 13:55:06;;;;;;;;;;;16.60;99.90;;;;;;4888361;29;20135;-77
2022/09/19 13:57:33;;;;;;;;;;;17.10;99.90;;;;;;4883872;29;19919;-76
2022/09/19 14:00:00;;;;;;;;;;;17.40;99.90;;;;;;4870202;29;19954;-77
2022/09/19 14:02:27;;;;;;;;;;;17.30;99.90;;;;;;4854029;29;19916;-76
2022/09/19 14:04:53;;;;;;;;;;;17.00;99.90;;;;;;4869578;29;19968;-77
2022/09/19 14:07:23;;;;;;;;;;;16.60;99.90;;;;;;4870029;29;19912;-76
2022/09/19 14:09:56;;;;;;;;;;;16.10;99.90;;;;;;4869781;29;19912;-76
2022/09/19 14:12:43;;;;;;;;;;;15.70;99.90;;;;;;4856394;29;19922;-77
2022/09/19 14:15:27;;;;;;;;;;;15.30;99.90;;;;;;4890529;29;19912;-77
2022/09/19 14:18:24;;;;;;;;;;;14.90;99.90;;;;;;4892688;29;19919;-76
2022/09/19 14:21:05;;;;;;;;;;;14.60;99.90;;;;;;4892967;29;19940;-76
2022/09/19 14:23:39;;;;;;;;;;;14.30;99.90;;;;;;4891372;29;19924;-76
2022/09/19 14:26:18;;;;;;;;;;;14.10;99.90;;;;;;4885694;29;19916;-76
2022/09/19 14:28:50;;;;;;;;;;;14.00;99.90;;;;;;4874306;29;19984;-76
2022/09/19 14:31:26;;;;;;;;;;;13.90;99.90;;;;;;4888597;29;19912;-76
2022/09/19 14:34:16;;;;;;;;;;;14.20;99.90;;;;;;4873405;29;20165;-77
2022/09/19 14:37:22;;;;;;;;;;;14.50;99.90;;;;;;4891593;29;19911;-76
2022/09/19 14:40:06;;;;;;;;;;;14.80;99.90;;;;;;4894590;29;20214;-76
2022/09/19 14:42:53;;;;;;;;;;;15.00;99.90;;;;;;4926380;23;19923;-77
2022/09/19 14:45:25;;;;;;;;;;;15.60;99.90;;;;;;4919009;29;20194;-78
2022/09/19 14:47:58;;;;;;;;;;;16.70;99.90;;;;;;4929929;29;20232;-78
2022/09/19 14:50:39;;;;;;;;;;;18.00;99.90;;;;;;4913552;29;19919;-78
2022/09/19 14:53:24;;;;;;;;;;;19.30;99.90;;;;;;4894810;29;19979;-77
2022/09/19 14:55:50;;;;;;;;;;;19.30;99.90;;;;;;4877288;29;20000;-78
2022/09/19 14:58:28;;;;;;;;;;;18.80;99.90;;;;;;4891852;29;20289;-78
2022/09/19 15:01:10;;;;;;;;;;;18.20;99.90;;;;;;4892144;29;19943;-78
2022/09/19 15:03:46;;;;;;;;;;;17.50;99.90;;;;;;4890978;29;20003;-78
2022/09/19 15:06:32;;;;;;;;;;;16.80;99.90;;;;;;4890781;29;19916;-76
2022/09/19 15:08:59;;;;;;;;;;;16.40;99.90;;;;;;4890680;29;19975;-79
2022/09/19 15:11:25;;;;;;;;;;;15.80;99.90;;;;;;4890890;29;19911;-76
2022/09/19 15:13:53;;;;;;;;;;;15.50;99.90;;;;;;4891077;29;19919;-75
2022/09/19 15:16:19;;;;;;;;;;;15.10;99.90;;;;;;4878926;29;19918;-77